createdAt,value
2019-04-29T00:00:07.007Z,6.90
2019-04-29T00:02:34.559Z,7.00
2019-04-29T00:05:02.116Z,7.00
2019-04-29T00:07:29.682Z,7.00
2019-04-29T00:09:59.173Z,7.00
2019-04-29T00:12:26.731Z,7.10
2019-04-29T00:14:57.735Z,7.00
2019-04-29T00:17:25.307Z,7.00
2019-04-29T00:19:55.800Z,7.00
2019-04-29T00:22:23.359Z,7.10
2019-04-29T00:24:50.919Z,7.10
2019-04-29T00:27:18.476Z,7.00
2019-04-29T00:29:46.027Z,6.80
2019-04-29T00:32:13.591Z,7.00
2019-04-29T00:34:41.149Z,7.10
2019-04-29T00:37:20.428Z,7.10
2019-04-29T00:39:54.623Z,7.10
2019-04-29T00:42:22.791Z,7.10
2019-04-29T00:44:50.343Z,7.10
2019-04-29T00:47:17.899Z,7.10
2019-04-29T00:49:45.460Z,7.00
2019-04-29T00:52:13.027Z,7.00
2019-04-29T00:54:46.335Z,7.00
2019-04-29T00:57:13.893Z,6.90
2019-04-29T00:59:41.463Z,6.80
2019-04-29T01:02:09.971Z,6.70
2019-04-29T01:04:37.539Z,6.70
2019-04-29T01:07:05.099Z,6.80
2019-04-29T01:09:32.655Z,6.80
2019-04-29T01:12:00.211Z,6.70
2019-04-29T01:14:28.732Z,6.70
2019-04-29T01:16:58.195Z,6.60
2019-04-29T01:19:25.756Z,6.40
2019-04-29T01:21:53.304Z,6.30
2019-04-29T01:24:20.859Z,6.20
2019-04-29T01:26:48.421Z,6.20
2019-04-29T01:29:22.536Z,6.20
2019-04-29T01:31:50.091Z,6.20
2019-04-29T01:34:18.555Z,6.30
2019-04-29T01:36:47.055Z,6.40
2019-04-29T01:39:14.611Z,6.50
2019-04-29T01:41:47.683Z,6.60
2019-04-29T01:44:15.240Z,6.60
2019-04-29T01:46:42.804Z,6.60
2019-04-29T01:49:10.359Z,6.60
2019-04-29T01:51:37.913Z,6.70
2019-04-29T01:54:05.467Z,6.70
2019-04-29T01:56:33.797Z,6.40
2019-04-29T01:59:01.345Z,6.40
2019-04-29T02:01:28.901Z,6.40
2019-04-29T02:03:56.464Z,6.30
2019-04-29T02:06:25.992Z,6.50
2019-04-29T02:08:53.555Z,6.40
2019-04-29T02:11:21.121Z,6.30
2019-04-29T02:13:48.676Z,6.20
2019-04-29T02:16:16.239Z,6.30
2019-04-29T02:18:44.562Z,6.20
2019-04-29T02:21:12.116Z,6.20
2019-04-29T02:26:33.384Z,6.20
2019-04-29T02:29:00.942Z,6.20
2019-04-29T02:31:34.026Z,6.10
2019-04-29T02:34:01.588Z,5.90
2019-04-29T02:36:30.310Z,5.90
2019-04-29T02:39:15.976Z,5.70
2019-04-29T02:41:59.270Z,5.70
2019-04-29T02:44:26.832Z,5.80
2019-04-29T02:46:54.397Z,5.70
2019-04-29T02:49:23.874Z,5.80
2019-04-29T02:51:52.276Z,5.70
2019-04-29T02:54:19.838Z,5.70
2019-04-29T02:56:47.404Z,5.80
2019-04-29T02:59:30.614Z,5.70
2019-04-29T03:02:19.021Z,5.70
2019-04-29T03:05:01.473Z,5.70
2019-04-29T03:07:29.054Z,5.70
2019-04-29T03:09:58.536Z,5.70
2019-04-29T03:12:26.109Z,5.80
2019-04-29T03:14:53.690Z,5.80
2019-04-29T03:17:21.260Z,5.90
2019-04-29T03:19:54.364Z,5.90
2019-04-29T03:22:21.931Z,5.90
2019-04-29T03:24:49.493Z,5.90
2019-04-29T03:27:17.052Z,5.70
2019-04-29T03:29:45.393Z,5.60
2019-04-29T03:32:12.960Z,5.60
2019-04-29T03:34:40.542Z,5.60
2019-04-29T03:37:09.032Z,5.60
2019-04-29T03:39:39.302Z,5.60
2019-04-29T03:42:07.547Z,5.60
2019-04-29T03:44:34.464Z,5.60
2019-04-29T03:47:02.783Z,5.40
2019-04-29T03:49:32.261Z,5.40
2019-04-29T03:51:59.817Z,5.50
2019-04-29T03:54:27.385Z,5.50
2019-04-29T03:56:55.060Z,5.50
2019-04-29T03:59:22.617Z,5.50
2019-04-29T04:01:51.814Z,5.60
2019-04-29T04:04:19.988Z,5.80
2019-04-29T04:06:59.254Z,5.90
2019-04-29T04:09:26.812Z,5.90
2019-04-29T04:11:54.397Z,5.90
2019-04-29T04:14:21.952Z,6.00
2019-04-29T04:16:56.079Z,6.00
2019-04-29T04:19:23.636Z,6.00
2019-04-29T04:21:51.196Z,6.00
2019-04-29T04:24:18.755Z,5.90
2019-04-29T04:26:46.311Z,6.00
2019-04-29T04:29:13.888Z,5.80
2019-04-29T04:31:43.364Z,5.90
2019-04-29T04:34:11.843Z,6.00
2019-04-29T04:36:39.423Z,5.90
2019-04-29T04:39:07.023Z,5.90
2019-04-29T04:41:36.442Z,5.80
2019-04-29T04:44:04.002Z,6.00
2019-04-29T04:46:31.568Z,6.00
2019-04-29T04:49:01.816Z,5.80
2019-04-29T04:51:29.420Z,5.80
2019-04-29T04:53:56.975Z,5.80
2019-04-29T04:56:24.535Z,5.90
2019-04-29T04:58:52.094Z,5.90
2019-04-29T05:01:20.633Z,5.80
2019-04-29T05:03:49.155Z,5.80
2019-04-29T05:06:16.729Z,5.70
2019-04-29T05:08:45.051Z,6.00
2019-04-29T05:11:12.613Z,6.00
2019-04-29T05:13:40.163Z,6.00
2019-04-29T05:16:07.715Z,6.00
2019-04-29T05:18:35.273Z,6.10
2019-04-29T05:21:02.842Z,6.10
2019-04-29T05:23:30.405Z,6.10
2019-04-29T05:25:57.967Z,6.10
2019-04-29T05:28:25.531Z,6.00
2019-04-29T05:30:53.090Z,6.00
2019-04-29T05:33:20.647Z,6.10
2019-04-29T05:35:51.811Z,6.00
2019-04-29T05:38:19.368Z,6.00
2019-04-29T05:40:47.868Z,6.00
2019-04-29T05:43:31.619Z,6.00
2019-04-29T05:45:55.535Z,6.00
2019-04-29T05:48:27.551Z,6.00
2019-04-29T05:50:53.170Z,6.00
2019-04-29T05:53:22.339Z,6.10
2019-04-29T05:55:52.537Z,6.30
2019-04-29T05:58:19.030Z,6.40
2019-04-29T06:00:53.139Z,6.40
2019-04-29T06:03:20.695Z,6.50
2019-04-29T06:05:48.255Z,6.30
2019-04-29T06:08:15.821Z,6.10
2019-04-29T06:10:43.382Z,6.30
2019-04-29T06:13:12.896Z,6.30
2019-04-29T06:15:40.456Z,6.40
2019-04-29T06:18:08.026Z,6.70
2019-04-29T06:20:37.491Z,6.60
2019-04-29T06:23:05.062Z,6.60
2019-04-29T06:25:32.619Z,6.60
2019-04-29T06:28:00.171Z,6.40
2019-04-29T06:30:27.742Z,6.60
2019-04-29T06:32:55.302Z,6.70
2019-04-29T06:35:22.862Z,6.60
2019-04-29T06:37:52.348Z,6.60
2019-04-29T06:40:21.787Z,6.60
2019-04-29T06:42:53.428Z,6.60
2019-04-29T06:45:17.966Z,6.60
2019-04-29T06:47:45.525Z,6.40
2019-04-29T06:50:13.085Z,6.50
2019-04-29T06:52:40.641Z,6.60
2019-04-29T06:55:08.198Z,6.60
2019-04-29T06:57:35.763Z,6.60
2019-04-29T07:00:03.320Z,6.80
2019-04-29T07:02:30.879Z,6.80
2019-04-29T07:04:58.433Z,7.00
2019-04-29T07:07:25.992Z,7.00
2019-04-29T07:09:56.534Z,7.00
2019-04-29T07:12:21.168Z,7.20
2019-04-29T07:14:49.507Z,7.70
2019-04-29T07:17:17.091Z,7.70
2019-04-29T07:19:44.651Z,7.80
2019-04-29T07:22:12.215Z,7.70
2019-04-29T07:24:41.499Z,7.80
2019-04-29T07:27:09.062Z,7.80
2019-04-29T07:29:38.183Z,8.00
2019-04-29T07:32:04.820Z,8.10
2019-04-29T07:34:35.673Z,8.10
2019-04-29T07:37:01.123Z,8.10
2019-04-29T07:39:31.702Z,8.00
2019-04-29T07:41:56.279Z,7.90
2019-04-29T07:44:23.869Z,8.20
2019-04-29T07:46:56.717Z,8.40
2019-04-29T07:49:19.033Z,8.30
2019-04-29T07:51:46.596Z,8.70
2019-04-29T07:54:15.858Z,9.30
2019-04-29T07:56:43.662Z,9.10
2019-04-29T07:59:11.655Z,8.80
2019-04-29T08:01:39.208Z,8.70
2019-04-29T08:04:06.761Z,8.80
2019-04-29T08:06:38.327Z,9.20
2019-04-29T08:09:07.467Z,9.50
2019-04-29T08:11:29.516Z,9.60
2019-04-29T08:13:57.077Z,9.70
2019-04-29T08:16:24.636Z,9.60
2019-04-29T08:18:53.493Z,9.40
2019-04-29T08:21:19.807Z,9.90
2019-04-29T08:23:47.371Z,9.90
2019-04-29T08:26:14.923Z,9.20
2019-04-29T08:28:42.483Z,9.60
2019-04-29T08:31:10.978Z,9.50
2019-04-29T08:33:38.534Z,9.30
2019-04-29T08:36:06.093Z,9.80
2019-04-29T08:38:33.653Z,10.40
2019-04-29T08:41:03.150Z,10.40
2019-04-29T08:43:32.583Z,10.80
2019-04-29T08:46:00.576Z,10.90
2019-04-29T08:48:30.047Z,10.10
2019-04-29T08:50:57.615Z,10.20
2019-04-29T08:53:25.224Z,10.50
2019-04-29T08:55:52.788Z,10.90
2019-04-29T08:58:20.398Z,11.30
2019-04-29T09:00:51.351Z,11.10
2019-04-29T09:03:18.766Z,10.40
2019-04-29T09:05:46.184Z,10.40
2019-04-29T09:08:13.355Z,10.00
2019-04-29T09:10:38.399Z,10.50
2019-04-29T09:13:05.960Z,10.20
2019-04-29T09:15:33.523Z,10.80
2019-04-29T09:18:01.093Z,11.20
2019-04-29T09:20:30.535Z,11.30
2019-04-29T09:23:00.635Z,11.00
2019-04-29T09:28:27.041Z,11.30
2019-04-29T09:30:49.015Z,12.00
2019-04-29T09:33:17.339Z,12.90
2019-04-29T09:35:45.815Z,12.80
2019-04-29T09:38:13.379Z,12.80
2019-04-29T09:40:45.471Z,12.50
2019-04-29T09:43:15.709Z,12.20
2019-04-29T09:48:33.027Z,11.30
2019-04-29T09:51:00.603Z,11.60
2019-04-29T09:53:28.926Z,12.20
2019-04-29T09:55:56.488Z,12.20
2019-04-29T09:58:24.052Z,12.40
2019-04-29T10:00:58.497Z,12.50
2019-04-29T10:03:40.704Z,12.70
2019-04-29T10:06:12.397Z,12.60
2019-04-29T10:08:37.415Z,12.60
2019-04-29T10:11:04.981Z,13.00
2019-04-29T10:13:32.551Z,13.30
2019-04-29T10:19:00.626Z,13.10
2019-04-29T10:21:27.492Z,12.90
2019-04-29T10:23:55.983Z,12.50
2019-04-29T10:26:23.546Z,12.00
2019-04-29T10:28:53.907Z,12.00
2019-04-29T10:31:21.472Z,12.20
2019-04-29T10:33:54.788Z,12.70
2019-04-29T10:36:20.690Z,13.50
2019-04-29T10:38:46.175Z,13.50
2019-04-29T10:41:16.247Z,12.90
2019-04-29T10:43:49.348Z,13.20
2019-04-29T10:46:21.643Z,13.50
2019-04-29T10:48:54.032Z,13.60
2019-04-29T10:51:23.201Z,13.80
2019-04-29T10:53:51.004Z,13.10
2019-04-29T10:56:16.818Z,12.30
2019-04-29T10:58:46.309Z,12.50
2019-04-29T11:04:10.727Z,12.70
2019-04-29T11:06:38.290Z,12.70
2019-04-29T11:09:23.627Z,13.10
2019-04-29T11:11:51.183Z,12.90
2019-04-29T11:14:18.740Z,13.00
2019-04-29T11:16:47.254Z,13.40
2019-04-29T11:19:14.811Z,13.50
2019-04-29T11:21:44.235Z,13.40
2019-04-29T11:24:12.793Z,13.80
2019-04-29T11:29:35.880Z,13.70
2019-04-29T11:32:02.887Z,13.40
2019-04-29T11:34:33.489Z,13.40
2019-04-29T11:37:00.674Z,13.80
2019-04-29T11:39:28.227Z,13.70
2019-04-29T11:41:59.817Z,13.10
2019-04-29T11:44:26.470Z,13.10
2019-04-29T11:46:51.001Z,13.30
2019-04-29T11:49:18.555Z,13.20
2019-04-29T11:52:07.835Z,13.60
2019-04-29T11:54:18.149Z,12.80
2019-04-29T11:56:42.884Z,12.80
2019-04-29T11:59:15.458Z,12.80
2019-04-29T12:01:53.482Z,13.00
2019-04-29T12:04:28.558Z,13.10
2019-04-29T12:06:56.332Z,12.40
2019-04-29T12:09:25.339Z,12.10
2019-04-29T12:11:49.107Z,12.20
2019-04-29T12:14:18.229Z,11.90
2019-04-29T12:16:49.318Z,11.60
2019-04-29T12:19:21.366Z,11.50
2019-04-29T12:21:45.428Z,11.50
2019-04-29T12:24:14.926Z,11.80
2019-04-29T12:26:44.342Z,11.70
2019-04-29T12:29:13.611Z,11.80
2019-04-29T12:31:44.802Z,11.80
2019-04-29T12:37:05.806Z,11.80
2019-04-29T12:39:43.373Z,11.80
2019-04-29T12:42:18.983Z,11.70
2019-04-29T12:44:50.006Z,11.70
2019-04-29T12:47:26.180Z,11.50
2019-04-29T12:49:46.435Z,11.40
2019-04-29T12:52:15.475Z,11.30
2019-04-29T12:54:46.183Z,11.40
2019-04-29T12:57:10.646Z,11.50
2019-04-29T12:59:38.208Z,11.60
2019-04-29T13:02:15.688Z,11.40
2019-04-29T13:04:49.804Z,11.50
2019-04-29T13:07:18.338Z,11.60
2019-04-29T13:09:49.691Z,11.60
2019-04-29T13:12:19.471Z,11.60
2019-04-29T13:14:45.342Z,11.60
2019-04-29T13:17:22.201Z,11.60
2019-04-29T13:20:07.415Z,12.50
2019-04-29T13:22:33.936Z,12.50
2019-04-29T13:25:03.420Z,12.70
2019-04-29T13:27:30.997Z,12.70
2019-04-29T13:29:58.560Z,12.40
2019-04-29T13:32:29.751Z,12.40
2019-04-29T13:34:53.741Z,12.00
2019-04-29T13:37:22.105Z,12.10
2019-04-29T13:39:55.230Z,11.90
2019-04-29T13:42:18.840Z,12.00
2019-04-29T13:45:05.491Z,12.00
2019-04-29T13:47:29.297Z,12.10
2019-04-29T13:50:17.930Z,12.10
2019-04-29T13:52:32.047Z,12.30
2019-04-29T13:55:16.127Z,12.30
2019-04-29T13:57:27.024Z,12.00
2019-04-29T14:00:05.476Z,11.60
2019-04-29T14:02:36.858Z,11.60
2019-04-29T14:05:03.311Z,11.50
2019-04-29T14:07:30.877Z,11.30
2019-04-29T14:09:58.439Z,11.40
2019-04-29T14:12:47.651Z,11.40
2019-04-29T14:14:53.940Z,11.60
2019-04-29T14:17:26.505Z,11.90
2019-04-29T14:19:48.814Z,12.00
2019-04-29T14:22:22.345Z,12.00
2019-04-29T14:24:46.738Z,12.00
2019-04-29T14:27:24.013Z,12.00
2019-04-29T14:29:39.403Z,12.00
2019-04-29T14:32:06.963Z,11.90
2019-04-29T14:34:37.463Z,11.80
2019-04-29T14:37:19.789Z,12.00
2019-04-29T14:39:37.306Z,11.90
2019-04-29T14:42:03.798Z,12.00
2019-04-29T14:44:34.994Z,12.10
2019-04-29T14:47:04.095Z,12.00
2019-04-29T14:49:46.538Z,12.20
2019-04-29T14:52:16.007Z,12.30
2019-04-29T14:54:43.644Z,12.50
2019-04-29T14:57:11.273Z,12.80
2019-04-29T14:59:39.922Z,12.80
2019-04-29T15:02:07.455Z,12.50
2019-04-29T15:04:34.982Z,12.60
2019-04-29T15:07:02.600Z,12.70
2019-04-29T15:09:30.187Z,12.70
2019-04-29T15:11:59.113Z,12.70
2019-04-29T15:14:27.393Z,12.70
2019-04-29T15:17:00.172Z,12.80
2019-04-29T15:19:33.391Z,13.00
2019-04-29T15:22:00.981Z,13.00
2019-04-29T15:24:32.376Z,13.00
2019-04-29T15:26:57.052Z,13.10
2019-04-29T15:29:24.603Z,13.10
2019-04-29T15:31:52.171Z,13.10
2019-04-29T15:34:19.727Z,13.10
2019-04-29T15:36:47.288Z,13.20
2019-04-29T15:39:14.991Z,13.30
2019-04-29T15:41:42.461Z,13.30
2019-04-29T15:44:18.740Z,13.20
2019-04-29T15:46:46.107Z,13.20
2019-04-29T15:49:05.240Z,13.10
2019-04-29T15:51:32.802Z,13.10
2019-04-29T15:54:00.379Z,13.20
2019-04-29T15:56:29.364Z,13.10
2019-04-29T15:58:59.717Z,13.10
2019-04-29T16:01:27.856Z,13.00
2019-04-29T16:03:54.758Z,13.10
2019-04-29T16:06:23.904Z,13.00
2019-04-29T16:08:58.455Z,12.80
2019-04-29T16:11:29.414Z,12.90
2019-04-29T16:14:08.406Z,12.90
2019-04-29T16:16:22.709Z,12.40
2019-04-29T16:18:50.276Z,12.50
2019-04-29T16:21:19.739Z,12.80
2019-04-29T16:23:47.300Z,13.10
2019-04-29T16:26:14.856Z,13.30
2019-04-29T16:28:44.351Z,13.40
2019-04-29T16:31:14.442Z,13.40
2019-04-29T16:33:41.398Z,13.50
2019-04-29T16:36:09.102Z,13.40
2019-04-29T16:38:36.674Z,13.40
2019-04-29T16:41:06.873Z,13.40
2019-04-29T16:43:36.084Z,13.40
2019-04-29T16:46:08.533Z,13.40
2019-04-29T16:48:37.047Z,13.40
2019-04-29T16:51:06.549Z,13.30
2019-04-29T16:53:32.249Z,13.30
2019-04-29T16:55:59.827Z,13.10
2019-04-29T16:58:27.387Z,13.20
2019-04-29T17:00:55.027Z,13.20
2019-04-29T17:03:22.566Z,13.10
2019-04-29T17:05:52.079Z,13.00
2019-04-29T17:08:19.640Z,12.80
2019-04-29T17:10:47.211Z,12.80
2019-04-29T17:13:21.791Z,12.50
2019-04-29T17:15:44.596Z,12.70
2019-04-29T17:18:09.979Z,12.70
2019-04-29T17:20:37.540Z,12.80
2019-04-29T17:23:05.102Z,12.80
2019-04-29T17:25:32.662Z,12.80
2019-04-29T17:28:02.199Z,12.70
2019-04-29T17:30:46.305Z,12.60
2019-04-29T17:33:12.148Z,12.60
2019-04-29T17:35:46.858Z,12.50
2019-04-29T17:38:08.035Z,12.40
2019-04-29T17:40:35.603Z,12.30
2019-04-29T17:43:05.227Z,12.30
2019-04-29T17:45:34.918Z,12.10
2019-04-29T17:48:18.221Z,12.10
2019-04-29T17:50:46.793Z,12.10
2019-04-29T17:53:15.338Z,12.00
2019-04-29T17:55:45.632Z,12.10
2019-04-29T17:58:13.241Z,12.00
2019-04-29T18:00:55.426Z,12.00
2019-04-29T18:03:15.294Z,12.00
2019-04-29T18:05:54.834Z,11.80
2019-04-29T18:08:20.029Z,11.70
2019-04-29T18:10:49.392Z,11.60
2019-04-29T18:13:21.829Z,11.60
2019-04-29T18:15:59.988Z,11.60
2019-04-29T18:18:17.407Z,11.60
2019-04-29T18:20:47.188Z,11.60
2019-04-29T18:26:14.906Z,11.50
2019-04-29T18:28:42.121Z,11.40
2019-04-29T18:31:09.684Z,11.30
2019-04-29T18:33:37.249Z,11.30
2019-04-29T18:36:06.989Z,11.30
2019-04-29T18:38:32.410Z,11.20
2019-04-29T18:41:00.746Z,11.20
2019-04-29T18:43:28.324Z,11.10
2019-04-29T18:45:59.008Z,11.00
2019-04-29T18:48:27.149Z,10.90
2019-04-29T18:50:56.884Z,10.80
2019-04-29T18:53:21.415Z,10.70
2019-04-29T18:55:48.974Z,10.70
2019-04-29T18:58:16.527Z,10.60
2019-04-29T19:00:49.524Z,10.60
2019-04-29T19:03:11.729Z,10.50
2019-04-29T19:05:55.207Z,10.50
2019-04-29T19:08:23.477Z,10.40
2019-04-29T19:10:52.156Z,10.40
2019-04-29T19:13:17.894Z,10.30
2019-04-29T19:15:48.444Z,10.30
2019-04-29T19:18:17.473Z,10.30
2019-04-29T19:20:40.685Z,10.20
2019-04-29T19:23:10.408Z,10.20
2019-04-29T19:25:41.465Z,10.30
2019-04-29T19:28:12.765Z,10.20
2019-04-29T19:30:33.088Z,10.10
2019-04-29T19:33:01.781Z,10.00
2019-04-29T19:35:29.494Z,10.00
2019-04-29T19:37:56.867Z,10.00
2019-04-29T19:40:25.863Z,10.00
2019-04-29T19:42:53.258Z,10.00
2019-04-29T19:45:21.993Z,10.00
2019-04-29T19:47:53.110Z,10.00
2019-04-29T19:50:19.534Z,10.00
2019-04-29T19:52:45.406Z,10.00
2019-04-29T19:55:13.042Z,10.10
2019-04-29T19:57:46.968Z,10.10
2019-04-29T20:00:08.887Z,10.10
2019-04-29T20:02:36.420Z,10.10
2019-04-29T20:05:08.646Z,10.00
2019-04-29T20:07:41.267Z,10.00
2019-04-29T20:10:09.737Z,10.10
2019-04-29T20:12:36.946Z,10.00
2019-04-29T20:15:07.839Z,10.00
2019-04-29T20:17:32.614Z,9.90
2019-04-29T20:20:01.162Z,9.90
2019-04-29T20:22:28.721Z,9.80
2019-04-29T20:24:56.362Z,9.80
2019-04-29T20:27:26.205Z,9.70
2019-04-29T20:29:51.862Z,9.70
2019-04-29T20:32:22.501Z,9.80
2019-04-29T20:34:47.142Z,9.70
2019-04-29T20:37:16.085Z,9.60
2019-04-29T20:39:42.351Z,9.60
2019-04-29T20:42:10.645Z,9.60
2019-04-29T20:44:44.538Z,9.60
2019-04-29T20:47:19.491Z,9.60
2019-04-29T20:49:36.053Z,9.50
2019-04-29T20:52:02.280Z,9.40
2019-04-29T20:54:30.411Z,9.30
2019-04-29T20:57:04.984Z,9.40
2019-04-29T20:59:26.617Z,9.20
2019-04-29T21:02:11.057Z,9.40
2019-04-29T21:04:31.998Z,9.40
2019-04-29T21:07:00.494Z,9.30
2019-04-29T21:09:22.184Z,9.30
2019-04-29T21:12:00.241Z,9.20
2019-04-29T21:17:30.692Z,9.30
2019-04-29T21:19:48.335Z,9.30
2019-04-29T21:22:22.280Z,9.30
2019-04-29T21:24:45.213Z,9.40
2019-04-29T21:27:11.099Z,9.40
2019-04-29T21:29:38.651Z,9.30
2019-04-29T21:32:06.976Z,9.30
2019-04-29T21:34:55.607Z,9.20
2019-04-29T21:37:26.548Z,9.30
2019-04-29T21:39:55.049Z,9.30
2019-04-29T21:42:28.050Z,9.30
2019-04-29T21:44:53.730Z,9.20
2019-04-29T21:47:21.286Z,9.20
2019-04-29T21:49:49.794Z,9.20
2019-04-29T21:52:19.618Z,9.20
2019-04-29T21:54:44.620Z,9.20
2019-04-29T21:57:11.692Z,9.10
2019-04-29T21:59:41.367Z,9.00
2019-04-29T22:02:11.270Z,9.10
2019-04-29T22:04:37.317Z,9.10
2019-04-29T22:07:04.783Z,9.10
2019-04-29T22:09:36.163Z,9.10
2019-04-29T22:12:00.370Z,9.10
2019-04-29T22:14:27.924Z,9.10
2019-04-29T22:16:57.101Z,9.00
2019-04-29T22:19:26.750Z,9.00
2019-04-29T22:21:52.743Z,9.00
2019-04-29T22:24:21.723Z,9.00
2019-04-29T22:26:45.968Z,9.00
2019-04-29T22:29:13.514Z,9.00
2019-04-29T22:31:41.845Z,9.00
2019-04-29T22:34:09.866Z,9.00
2019-04-29T22:36:37.000Z,9.00
2019-04-29T22:39:06.242Z,9.10
2019-04-29T22:41:38.555Z,9.10
2019-04-29T22:44:06.111Z,9.10
2019-04-29T22:46:35.274Z,9.00
2019-04-29T22:49:01.276Z,9.10
2019-04-29T22:51:28.848Z,9.10
2019-04-29T22:53:56.411Z,9.10
2019-04-29T22:56:25.923Z,9.10
2019-04-29T22:58:51.576Z,9.00
2019-04-29T23:01:19.897Z,9.00
2019-04-29T23:03:47.461Z,8.90
2019-04-29T23:06:15.697Z,9.00
2019-04-29T23:08:42.633Z,8.90
2019-04-29T23:11:11.247Z,8.90
2019-04-29T23:13:38.808Z,8.90
2019-04-29T23:16:06.360Z,9.00
2019-04-29T23:18:42.115Z,9.00
2019-04-29T23:21:06.866Z,8.90
2019-04-29T23:23:38.179Z,8.90
2019-04-29T23:26:05.521Z,8.80
2019-04-29T23:28:32.124Z,8.80
2019-04-29T23:31:01.620Z,8.80
2019-04-29T23:33:29.177Z,8.80
2019-04-29T23:35:56.735Z,8.80
2019-04-29T23:38:25.562Z,8.70
2019-04-29T23:40:54.469Z,8.60
2019-04-29T23:43:19.892Z,8.60
2019-04-29T23:45:47.098Z,8.70
2019-04-29T23:48:14.660Z,8.70
2019-04-29T23:50:42.227Z,8.80
2019-04-29T23:53:09.787Z,8.70
2019-04-29T23:55:37.348Z,8.60
2019-04-29T23:58:06.826Z,8.60
